sensor_id;sensor_type;location;lat;lon;timestamp;P1;durP1;ratioP1;P2;durP2;ratioP2
69005;SDS011;56061;51.748;19.620;2023-02-15T00:00:00;89.20;;;35.10;;
69005;SDS011;56061;51.748;19.620;2023-02-15T00:02:27;74.60;;;31.40;;
69005;SDS011;56061;51.748;19.620;2023-02-15T00:04:54;72.30;;;31.90;;
69005;SDS011;56061;51.748;19.620;2023-02-15T00:07:22;69.40;;;32.30;;
69005;SDS011;56061;51.748;19.620;2023-02-15T00:09:48;64.40;;;30.30;;
69005;SDS011;56061;51.748;19.620;2023-02-15T00:12:16;59.40;;;28.90;;
69005;SDS011;56061;51.748;19.620;2023-02-15T00:14:43;59.60;;;28.80;;
69005;SDS011;56061;51.748;19.620;2023-02-15T00:17:10;63.00;;;29.00;;
69005;SDS011;56061;51.748;19.620;2023-02-15T00:19:36;66.00;;;29.20;;
69005;SDS011;56061;51.748;19.620;2023-02-15T00:22:03;60.00;;;29.00;;
69005;SDS011;56061;51.748;19.620;2023-02-15T00:24:30;60.70;;;28.70;;
69005;SDS011;56061;51.748;19.620;2023-02-15T00:26:56;62.50;;;29.50;;
69005;SDS011;56061;51.748;19.620;2023-02-15T00:29:23;64.30;;;30.10;;
69005;SDS011;56061;51.748;19.620;2023-02-15T00:31:50;69.20;;;30.10;;
69005;SDS011;56061;51.748;19.620;2023-02-15T00:34:22;87.30;;;35.60;;
69005;SDS011;56061;51.748;19.620;2023-02-15T00:36:51;89.90;;;37.50;;
69005;SDS011;56061;51.748;19.620;2023-02-15T00:39:18;89.00;;;36.30;;
69005;SDS011;56061;51.748;19.620;2023-02-15T00:41:46;71.60;;;31.80;;
69005;SDS011;56061;51.748;19.620;2023-02-15T00:44:13;70.20;;;31.00;;
69005;SDS011;56061;51.748;19.620;2023-02-15T00:46:40;68.00;;;30.90;;
69005;SDS011;56061;51.748;19.620;2023-02-15T00:49:06;67.70;;;30.70;;
69005;SDS011;56061;51.748;19.620;2023-02-15T00:51:33;74.00;;;32.70;;
69005;SDS011;56061;51.748;19.620;2023-02-15T00:53:59;72.90;;;31.10;;
69005;SDS011;56061;51.748;19.620;2023-02-15T00:56:26;74.00;;;32.40;;
69005;SDS011;56061;51.748;19.620;2023-02-15T00:58:55;75.20;;;32.60;;
69005;SDS011;56061;51.748;19.620;2023-02-15T01:01:22;81.20;;;34.60;;
69005;SDS011;56061;51.748;19.620;2023-02-15T01:03:49;59.70;;;26.90;;
69005;SDS011;56061;51.748;19.620;2023-02-15T01:06:16;74.90;;;32.20;;
69005;SDS011;56061;51.748;19.620;2023-02-15T01:08:45;70.00;;;31.20;;
69005;SDS011;56061;51.748;19.620;2023-02-15T01:11:14;79.50;;;33.00;;
69005;SDS011;56061;51.748;19.620;2023-02-15T01:13:55;78.50;;;33.30;;
69005;SDS011;56061;51.748;19.620;2023-02-15T01:16:24;73.20;;;32.70;;
69005;SDS011;56061;51.748;19.620;2023-02-15T01:18:53;57.70;;;28.20;;
69005;SDS011;56061;51.748;19.620;2023-02-15T01:21:22;67.20;;;30.20;;
69005;SDS011;56061;51.748;19.620;2023-02-15T01:23:50;93.80;;;36.40;;
69005;SDS011;56061;51.748;19.620;2023-02-15T01:26:17;98.00;;;39.40;;
69005;SDS011;56061;51.748;19.620;2023-02-15T01:28:44;76.70;;;32.20;;
69005;SDS011;56061;51.748;19.620;2023-02-15T01:31:14;73.40;;;32.70;;
69005;SDS011;56061;51.748;19.620;2023-02-15T01:33:41;67.40;;;30.90;;
69005;SDS011;56061;51.748;19.620;2023-02-15T01:36:08;53.10;;;26.00;;
69005;SDS011;56061;51.748;19.620;2023-02-15T01:38:35;45.70;;;22.70;;
69005;SDS011;56061;51.748;19.620;2023-02-15T01:41:03;43.50;;;22.10;;
69005;SDS011;56061;51.748;19.620;2023-02-15T01:43:53;49.10;;;24.00;;
69005;SDS011;56061;51.748;19.620;2023-02-15T01:46:47;58.60;;;27.60;;
69005;SDS011;56061;51.748;19.620;2023-02-15T01:49:20;69.20;;;30.70;;
69005;SDS011;56061;51.748;19.620;2023-02-15T01:51:51;65.90;;;29.40;;
69005;SDS011;56061;51.748;19.620;2023-02-15T01:54:25;63.10;;;28.90;;
69005;SDS011;56061;51.748;19.620;2023-02-15T01:56:58;66.70;;;28.30;;
69005;SDS011;56061;51.748;19.620;2023-02-15T01:59:28;65.00;;;29.20;;
69005;SDS011;56061;51.748;19.620;2023-02-15T02:01:58;59.20;;;28.00;;
69005;SDS011;56061;51.748;19.620;2023-02-15T02:04:38;53.30;;;25.70;;
69005;SDS011;56061;51.748;19.620;2023-02-15T02:07:12;51.40;;;25.20;;
69005;SDS011;56061;51.748;19.620;2023-02-15T02:09:41;34.30;;;18.40;;
69005;SDS011;56061;51.748;19.620;2023-02-15T02:24:17;55.50;;;29.20;;
69005;SDS011;56061;51.748;19.620;2023-02-15T02:27:21;56.70;;;29.10;;
69005;SDS011;56061;51.748;19.620;2023-02-15T02:33:37;54.30;;;27.10;;
69005;SDS011;56061;51.748;19.620;2023-02-15T02:39:21;58.70;;;27.00;;
69005;SDS011;56061;51.748;19.620;2023-02-15T02:44:55;49.00;;;23.90;;
69005;SDS011;56061;51.748;19.620;2023-02-15T02:47:49;49.20;;;23.70;;
69005;SDS011;56061;51.748;19.620;2023-02-15T02:50:26;51.20;;;22.80;;
69005;SDS011;56061;51.748;19.620;2023-02-15T02:52:56;45.60;;;23.30;;
69005;SDS011;56061;51.748;19.620;2023-02-15T02:55:30;53.80;;;24.50;;
69005;SDS011;56061;51.748;19.620;2023-02-15T02:58:13;51.60;;;23.40;;
69005;SDS011;56061;51.748;19.620;2023-02-15T03:00:48;44.90;;;22.00;;
69005;SDS011;56061;51.748;19.620;2023-02-15T03:03:49;47.00;;;21.00;;
69005;SDS011;56061;51.748;19.620;2023-02-15T03:06:25;44.30;;;22.00;;
69005;SDS011;56061;51.748;19.620;2023-02-15T03:09:14;40.90;;;19.00;;
69005;SDS011;56061;51.748;19.620;2023-02-15T03:11:44;25.10;;;14.00;;
69005;SDS011;56061;51.748;19.620;2023-02-15T03:14:13;29.40;;;14.00;;
69005;SDS011;56061;51.748;19.620;2023-02-15T03:16:44;24.70;;;13.10;;
69005;SDS011;56061;51.748;19.620;2023-02-15T03:19:19;29.00;;;14.40;;
69005;SDS011;56061;51.748;19.620;2023-02-15T03:21:51;28.30;;;15.10;;
69005;SDS011;56061;51.748;19.620;2023-02-15T03:27:22;32.10;;;16.00;;
69005;SDS011;56061;51.748;19.620;2023-02-15T03:29:56;37.20;;;18.20;;
69005;SDS011;56061;51.748;19.620;2023-02-15T03:32:26;30.50;;;15.10;;
69005;SDS011;56061;51.748;19.620;2023-02-15T03:34:57;28.00;;;14.20;;
69005;SDS011;56061;51.748;19.620;2023-02-15T03:37:40;31.90;;;14.50;;
69005;SDS011;56061;51.748;19.620;2023-02-15T03:46:25;30.10;;;14.00;;
69005;SDS011;56061;51.748;19.620;2023-02-15T03:49:07;26.30;;;13.20;;
69005;SDS011;56061;51.748;19.620;2023-02-15T03:51:39;26.00;;;13.80;;
69005;SDS011;56061;51.748;19.620;2023-02-15T03:54:19;27.00;;;13.80;;
69005;SDS011;56061;51.748;19.620;2023-02-15T03:57:18;26.20;;;13.20;;
69005;SDS011;56061;51.748;19.620;2023-02-15T04:00:14;26.10;;;12.70;;
69005;SDS011;56061;51.748;19.620;2023-02-15T04:03:23;25.60;;;13.40;;
69005;SDS011;56061;51.748;19.620;2023-02-15T04:06:10;31.20;;;13.70;;
69005;SDS011;56061;51.748;19.620;2023-02-15T04:08:36;28.90;;;13.20;;
69005;SDS011;56061;51.748;19.620;2023-02-15T04:11:21;27.20;;;13.20;;
69005;SDS011;56061;51.748;19.620;2023-02-15T04:13:47;25.40;;;13.30;;
69005;SDS011;56061;51.748;19.620;2023-02-15T04:16:24;26.10;;;13.70;;
69005;SDS011;56061;51.748;19.620;2023-02-15T04:18:50;29.10;;;13.70;;
69005;SDS011;56061;51.748;19.620;2023-02-15T04:21:36;30.80;;;14.10;;
69005;SDS011;56061;51.748;19.620;2023-02-15T04:24:21;32.90;;;14.60;;
69005;SDS011;56061;51.748;19.620;2023-02-15T04:27:05;29.40;;;13.60;;
69005;SDS011;56061;51.748;19.620;2023-02-15T04:29:32;29.80;;;13.90;;
69005;SDS011;56061;51.748;19.620;2023-02-15T04:32:00;31.00;;;14.70;;
69005;SDS011;56061;51.748;19.620;2023-02-15T04:34:27;29.70;;;13.20;;
69005;SDS011;56061;51.748;19.620;2023-02-15T04:36:54;27.40;;;14.20;;
69005;SDS011;56061;51.748;19.620;2023-02-15T04:39:21;32.30;;;14.30;;
69005;SDS011;56061;51.748;19.620;2023-02-15T04:41:47;28.40;;;14.20;;
69005;SDS011;56061;51.748;19.620;2023-02-15T04:44:14;31.30;;;15.00;;
69005;SDS011;56061;51.748;19.620;2023-02-15T04:46:40;29.60;;;14.80;;
69005;SDS011;56061;51.748;19.620;2023-02-15T04:49:08;32.10;;;16.10;;
69005;SDS011;56061;51.748;19.620;2023-02-15T04:51:34;36.00;;;16.80;;
69005;SDS011;56061;51.748;19.620;2023-02-15T04:54:01;49.70;;;20.50;;
69005;SDS011;56061;51.748;19.620;2023-02-15T04:56:27;44.50;;;18.10;;
69005;SDS011;56061;51.748;19.620;2023-02-15T04:58:56;40.40;;;18.20;;
69005;SDS011;56061;51.748;19.620;2023-02-15T05:01:23;38.80;;;16.70;;
69005;SDS011;56061;51.748;19.620;2023-02-15T05:03:49;39.60;;;17.60;;
69005;SDS011;56061;51.748;19.620;2023-02-15T05:06:16;42.30;;;19.30;;
69005;SDS011;56061;51.748;19.620;2023-02-15T05:08:42;38.30;;;18.30;;
69005;SDS011;56061;51.748;19.620;2023-02-15T05:11:08;37.30;;;16.70;;
69005;SDS011;56061;51.748;19.620;2023-02-15T05:13:35;33.30;;;15.90;;
69005;SDS011;56061;51.748;19.620;2023-02-15T05:16:02;33.20;;;15.50;;
69005;SDS011;56061;51.748;19.620;2023-02-15T05:18:29;37.40;;;17.40;;
69005;SDS011;56061;51.748;19.620;2023-02-15T05:20:55;38.90;;;17.90;;
69005;SDS011;56061;51.748;19.620;2023-02-15T05:23:22;42.20;;;19.40;;
69005;SDS011;56061;51.748;19.620;2023-02-15T05:25:49;43.10;;;20.40;;
69005;SDS011;56061;51.748;19.620;2023-02-15T05:28:37;46.30;;;20.80;;
69005;SDS011;56061;51.748;19.620;2023-02-15T05:31:10;50.30;;;23.00;;
69005;SDS011;56061;51.748;19.620;2023-02-15T05:33:43;51.40;;;22.30;;
69005;SDS011;56061;51.748;19.620;2023-02-15T05:36:11;51.50;;;23.80;;
69005;SDS011;56061;51.748;19.620;2023-02-15T05:38:38;49.50;;;21.90;;
69005;SDS011;56061;51.748;19.620;2023-02-15T05:41:06;42.80;;;20.20;;
69005;SDS011;56061;51.748;19.620;2023-02-15T05:43:33;36.90;;;16.80;;
69005;SDS011;56061;51.748;19.620;2023-02-15T05:46:00;27.90;;;14.80;;
69005;SDS011;56061;51.748;19.620;2023-02-15T05:48:29;32.20;;;16.00;;
69005;SDS011;56061;51.748;19.620;2023-02-15T05:53:36;36.30;;;15.80;;
69005;SDS011;56061;51.748;19.620;2023-02-15T05:56:05;34.30;;;15.40;;
69005;SDS011;56061;51.748;19.620;2023-02-15T05:58:35;28.80;;;13.80;;
69005;SDS011;56061;51.748;19.620;2023-02-15T06:01:10;28.00;;;13.30;;
69005;SDS011;56061;51.748;19.620;2023-02-15T06:03:41;26.70;;;13.30;;
69005;SDS011;56061;51.748;19.620;2023-02-15T06:06:08;27.50;;;13.10;;
69005;SDS011;56061;51.748;19.620;2023-02-15T06:08:36;31.10;;;14.90;;
69005;SDS011;56061;51.748;19.620;2023-02-15T06:11:04;32.70;;;16.30;;
69005;SDS011;56061;51.748;19.620;2023-02-15T06:13:31;27.10;;;13.20;;
69005;SDS011;56061;51.748;19.620;2023-02-15T06:16:01;24.20;;;12.90;;
69005;SDS011;56061;51.748;19.620;2023-02-15T06:18:28;26.50;;;13.20;;
69005;SDS011;56061;51.748;19.620;2023-02-15T06:20:55;27.90;;;13.30;;
69005;SDS011;56061;51.748;19.620;2023-02-15T06:23:21;27.20;;;13.80;;
69005;SDS011;56061;51.748;19.620;2023-02-15T06:25:48;35.10;;;16.20;;
69005;SDS011;56061;51.748;19.620;2023-02-15T06:28:14;33.30;;;16.50;;
69005;SDS011;56061;51.748;19.620;2023-02-15T06:30:41;31.00;;;15.10;;
69005;SDS011;56061;51.748;19.620;2023-02-15T06:33:07;31.30;;;15.10;;
69005;SDS011;56061;51.748;19.620;2023-02-15T06:35:34;37.20;;;17.40;;
69005;SDS011;56061;51.748;19.620;2023-02-15T06:38:00;47.50;;;19.80;;
69005;SDS011;56061;51.748;19.620;2023-02-15T06:40:27;49.00;;;20.40;;
69005;SDS011;56061;51.748;19.620;2023-02-15T06:42:53;40.50;;;18.80;;
69005;SDS011;56061;51.748;19.620;2023-02-15T06:45:20;34.60;;;16.80;;
69005;SDS011;56061;51.748;19.620;2023-02-15T06:47:46;32.70;;;15.40;;
69005;SDS011;56061;51.748;19.620;2023-02-15T06:50:12;37.40;;;17.30;;
69005;SDS011;56061;51.748;19.620;2023-02-15T06:52:39;32.70;;;15.40;;
69005;SDS011;56061;51.748;19.620;2023-02-15T06:55:05;35.50;;;17.20;;
69005;SDS011;56061;51.748;19.620;2023-02-15T06:57:32;35.60;;;17.30;;
69005;SDS011;56061;51.748;19.620;2023-02-15T06:59:59;34.60;;;16.50;;
69005;SDS011;56061;51.748;19.620;2023-02-15T07:02:25;33.70;;;16.60;;
69005;SDS011;56061;51.748;19.620;2023-02-15T07:04:52;42.50;;;19.00;;
69005;SDS011;56061;51.748;19.620;2023-02-15T07:07:18;36.40;;;16.10;;
69005;SDS011;56061;51.748;19.620;2023-02-15T07:09:45;35.30;;;17.30;;
69005;SDS011;56061;51.748;19.620;2023-02-15T07:12:11;34.90;;;16.70;;
69005;SDS011;56061;51.748;19.620;2023-02-15T07:14:56;36.50;;;18.10;;
69005;SDS011;56061;51.748;19.620;2023-02-15T07:17:24;42.60;;;19.50;;
69005;SDS011;56061;51.748;19.620;2023-02-15T07:20:09;33.50;;;15.20;;
69005;SDS011;56061;51.748;19.620;2023-02-15T07:22:44;30.90;;;14.00;;
69005;SDS011;56061;51.748;19.620;2023-02-15T07:25:11;31.70;;;14.80;;
69005;SDS011;56061;51.748;19.620;2023-02-15T07:27:39;31.50;;;15.50;;
69005;SDS011;56061;51.748;19.620;2023-02-15T07:30:09;31.80;;;14.90;;
69005;SDS011;56061;51.748;19.620;2023-02-15T07:32:39;34.10;;;14.50;;
69005;SDS011;56061;51.748;19.620;2023-02-15T07:35:27;64.50;;;28.40;;
69005;SDS011;56061;51.748;19.620;2023-02-15T07:37:53;108.70;;;40.80;;
69005;SDS011;56061;51.748;19.620;2023-02-15T07:40:20;42.10;;;18.80;;
69005;SDS011;56061;51.748;19.620;2023-02-15T07:42:50;58.70;;;26.00;;
69005;SDS011;56061;51.748;19.620;2023-02-15T07:45:20;43.10;;;18.80;;
69005;SDS011;56061;51.748;19.620;2023-02-15T07:47:47;37.80;;;17.30;;
69005;SDS011;56061;51.748;19.620;2023-02-15T07:50:13;41.20;;;18.30;;
69005;SDS011;56061;51.748;19.620;2023-02-15T07:52:40;59.00;;;23.50;;
69005;SDS011;56061;51.748;19.620;2023-02-15T07:55:07;46.70;;;20.40;;
69005;SDS011;56061;51.748;19.620;2023-02-15T07:57:35;53.30;;;21.90;;
69005;SDS011;56061;51.748;19.620;2023-02-15T08:00:03;112.70;;;40.40;;
69005;SDS011;56061;51.748;19.620;2023-02-15T08:02:30;115.80;;;44.10;;
69005;SDS011;56061;51.748;19.620;2023-02-15T08:04:56;46.60;;;21.50;;
69005;SDS011;56061;51.748;19.620;2023-02-15T08:07:23;37.40;;;17.00;;
69005;SDS011;56061;51.748;19.620;2023-02-15T08:09:49;36.00;;;17.50;;
69005;SDS011;56061;51.748;19.620;2023-02-15T08:12:17;33.80;;;16.60;;
69005;SDS011;56061;51.748;19.620;2023-02-15T08:14:43;32.60;;;15.90;;
69005;SDS011;56061;51.748;19.620;2023-02-15T08:17:09;37.70;;;17.00;;
69005;SDS011;56061;51.748;19.620;2023-02-15T08:19:36;41.40;;;17.50;;
69005;SDS011;56061;51.748;19.620;2023-02-15T08:22:05;44.80;;;18.90;;
69005;SDS011;56061;51.748;19.620;2023-02-15T08:24:35;43.60;;;17.90;;
69005;SDS011;56061;51.748;19.620;2023-02-15T08:27:07;46.00;;;19.30;;
69005;SDS011;56061;51.748;19.620;2023-02-15T08:29:36;41.00;;;18.50;;
69005;SDS011;56061;51.748;19.620;2023-02-15T08:32:06;56.70;;;20.80;;
69005;SDS011;56061;51.748;19.620;2023-02-15T08:34:39;47.80;;;20.30;;
69005;SDS011;56061;51.748;19.620;2023-02-15T08:37:08;50.10;;;19.90;;
69005;SDS011;56061;51.748;19.620;2023-02-15T08:39:35;60.10;;;22.20;;
69005;SDS011;56061;51.748;19.620;2023-02-15T08:42:02;51.10;;;22.00;;
69005;SDS011;56061;51.748;19.620;2023-02-15T08:44:28;57.40;;;22.80;;
69005;SDS011;56061;51.748;19.620;2023-02-15T08:46:55;61.50;;;25.70;;
69005;SDS011;56061;51.748;19.620;2023-02-15T08:49:29;55.60;;;24.70;;
69005;SDS011;56061;51.748;19.620;2023-02-15T08:51:55;49.50;;;23.50;;
69005;SDS011;56061;51.748;19.620;2023-02-15T08:54:22;50.60;;;21.30;;
69005;SDS011;56061;51.748;19.620;2023-02-15T08:56:48;138.80;;;43.60;;
69005;SDS011;56061;51.748;19.620;2023-02-15T08:59:20;65.60;;;25.30;;
69005;SDS011;56061;51.748;19.620;2023-02-15T09:01:50;49.80;;;19.30;;
69005;SDS011;56061;51.748;19.620;2023-02-15T09:04:18;52.40;;;22.40;;
69005;SDS011;56061;51.748;19.620;2023-02-15T09:06:47;41.80;;;18.80;;
69005;SDS011;56061;51.748;19.620;2023-02-15T09:09:16;47.40;;;19.80;;
69005;SDS011;56061;51.748;19.620;2023-02-15T09:11:46;43.60;;;18.70;;
69005;SDS011;56061;51.748;19.620;2023-02-15T09:14:17;55.40;;;25.70;;
69005;SDS011;56061;51.748;19.620;2023-02-15T09:16:52;48.20;;;21.80;;
69005;SDS011;56061;51.748;19.620;2023-02-15T09:19:21;47.30;;;21.70;;
69005;SDS011;56061;51.748;19.620;2023-02-15T09:21:48;41.50;;;19.20;;
69005;SDS011;56061;51.748;19.620;2023-02-15T09:24:17;45.40;;;19.10;;
69005;SDS011;56061;51.748;19.620;2023-02-15T09:26:46;50.40;;;21.10;;
69005;SDS011;56061;51.748;19.620;2023-02-15T09:29:15;46.40;;;19.50;;
69005;SDS011;56061;51.748;19.620;2023-02-15T09:31:45;38.80;;;16.80;;
69005;SDS011;56061;51.748;19.620;2023-02-15T09:34:17;46.50;;;20.40;;
69005;SDS011;56061;51.748;19.620;2023-02-15T09:36:46;47.10;;;21.50;;
69005;SDS011;56061;51.748;19.620;2023-02-15T09:39:15;40.50;;;19.40;;
69005;SDS011;56061;51.748;19.620;2023-02-15T09:42:10;36.50;;;17.30;;
69005;SDS011;56061;51.748;19.620;2023-02-15T09:45:20;37.90;;;18.00;;
69005;SDS011;56061;51.748;19.620;2023-02-15T09:50:56;33.10;;;15.90;;
69005;SDS011;56061;51.748;19.620;2023-02-15T09:57:08;32.10;;;14.50;;
69005;SDS011;56061;51.748;19.620;2023-02-15T10:02:53;37.70;;;17.10;;
69005;SDS011;56061;51.748;19.620;2023-02-15T10:08:34;40.60;;;17.70;;
69005;SDS011;56061;51.748;19.620;2023-02-15T10:11:54;35.20;;;15.90;;
69005;SDS011;56061;51.748;19.620;2023-02-15T10:14:43;29.60;;;14.10;;
69005;SDS011;56061;51.748;19.620;2023-02-15T10:17:40;33.10;;;15.90;;
69005;SDS011;56061;51.748;19.620;2023-02-15T10:26:01;35.00;;;16.20;;
69005;SDS011;56061;51.748;19.620;2023-02-15T10:35:32;38.20;;;17.10;;
69005;SDS011;56061;51.748;19.620;2023-02-15T10:38:13;29.20;;;14.20;;
69005;SDS011;56061;51.748;19.620;2023-02-15T10:46:44;29.40;;;14.10;;
69005;SDS011;56061;51.748;19.620;2023-02-15T10:49:30;29.40;;;13.80;;
69005;SDS011;56061;51.748;19.620;2023-02-15T10:58:24;33.90;;;14.30;;
69005;SDS011;56061;51.748;19.620;2023-02-15T11:01:27;35.30;;;14.80;;
69005;SDS011;56061;51.748;19.620;2023-02-15T11:06:59;29.30;;;13.50;;
69005;SDS011;56061;51.748;19.620;2023-02-15T11:09:37;40.80;;;18.00;;
69005;SDS011;56061;51.748;19.620;2023-02-15T11:12:12;34.80;;;12.80;;
69005;SDS011;56061;51.748;19.620;2023-02-15T11:18:09;32.80;;;12.80;;
69005;SDS011;56061;51.748;19.620;2023-02-15T11:20:48;29.60;;;12.90;;
69005;SDS011;56061;51.748;19.620;2023-02-15T11:23:20;47.20;;;16.90;;
69005;SDS011;56061;51.748;19.620;2023-02-15T11:26:46;43.80;;;18.00;;
69005;SDS011;56061;51.748;19.620;2023-02-15T11:29:50;38.80;;;16.80;;
69005;SDS011;56061;51.748;19.620;2023-02-15T11:32:21;43.30;;;18.10;;
69005;SDS011;56061;51.748;19.620;2023-02-15T11:35:03;43.20;;;19.10;;
69005;SDS011;56061;51.748;19.620;2023-02-15T11:37:49;46.50;;;19.00;;
69005;SDS011;56061;51.748;19.620;2023-02-15T11:43:17;31.70;;;13.20;;
69005;SDS011;56061;51.748;19.620;2023-02-15T11:45:49;37.90;;;13.90;;
69005;SDS011;56061;51.748;19.620;2023-02-15T11:48:17;37.50;;;15.80;;
69005;SDS011;56061;51.748;19.620;2023-02-15T11:50:45;40.10;;;16.60;;
69005;SDS011;56061;51.748;19.620;2023-02-15T11:53:13;39.20;;;16.70;;
69005;SDS011;56061;51.748;19.620;2023-02-15T11:55:44;36.90;;;15.40;;
69005;SDS011;56061;51.748;19.620;2023-02-15T11:58:35;42.50;;;17.00;;
69005;SDS011;56061;51.748;19.620;2023-02-15T12:01:21;42.60;;;17.20;;
69005;SDS011;56061;51.748;19.620;2023-02-15T12:03:55;50.00;;;19.80;;
69005;SDS011;56061;51.748;19.620;2023-02-15T12:09:34;45.30;;;17.20;;
69005;SDS011;56061;51.748;19.620;2023-02-15T12:12:33;40.40;;;16.20;;
69005;SDS011;56061;51.748;19.620;2023-02-15T12:15:05;41.00;;;17.30;;
69005;SDS011;56061;51.748;19.620;2023-02-15T12:17:52;55.50;;;23.10;;
69005;SDS011;56061;51.748;19.620;2023-02-15T12:20:33;79.80;;;31.00;;
69005;SDS011;56061;51.748;19.620;2023-02-15T12:23:05;53.00;;;20.00;;
69005;SDS011;56061;51.748;19.620;2023-02-15T12:30:57;53.30;;;20.40;;
69005;SDS011;56061;51.748;19.620;2023-02-15T12:33:41;63.10;;;25.00;;
69005;SDS011;56061;51.748;19.620;2023-02-15T12:36:18;50.20;;;18.90;;
69005;SDS011;56061;51.748;19.620;2023-02-15T12:39:22;57.50;;;22.60;;
69005;SDS011;56061;51.748;19.620;2023-02-15T12:47:06;49.80;;;19.80;;
69005;SDS011;56061;51.748;19.620;2023-02-15T12:50:04;47.60;;;20.10;;
69005;SDS011;56061;51.748;19.620;2023-02-15T12:52:37;48.10;;;17.90;;
69005;SDS011;56061;51.748;19.620;2023-02-15T12:55:26;52.00;;;21.30;;
69005;SDS011;56061;51.748;19.620;2023-02-15T12:58:07;48.30;;;19.10;;
69005;SDS011;56061;51.748;19.620;2023-02-15T13:00:42;43.30;;;17.50;;
69005;SDS011;56061;51.748;19.620;2023-02-15T13:03:17;44.80;;;16.60;;
69005;SDS011;56061;51.748;19.620;2023-02-15T13:05:49;48.80;;;19.00;;
69005;SDS011;56061;51.748;19.620;2023-02-15T13:08:30;43.50;;;16.60;;
69005;SDS011;56061;51.748;19.620;2023-02-15T13:11:08;41.80;;;16.30;;
69005;SDS011;56061;51.748;19.620;2023-02-15T13:13:54;42.20;;;16.80;;
69005;SDS011;56061;51.748;19.620;2023-02-15T13:16:31;61.00;;;22.60;;
69005;SDS011;56061;51.748;19.620;2023-02-15T13:19:09;70.30;;;25.30;;
69005;SDS011;56061;51.748;19.620;2023-02-15T13:21:44;56.60;;;20.60;;
69005;SDS011;56061;51.748;19.620;2023-02-15T13:24:43;58.10;;;21.70;;
69005;SDS011;56061;51.748;19.620;2023-02-15T13:27:16;59.20;;;21.40;;
69005;SDS011;56061;51.748;19.620;2023-02-15T13:29:56;49.90;;;18.50;;
69005;SDS011;56061;51.748;19.620;2023-02-15T13:32:31;48.30;;;18.60;;
69005;SDS011;56061;51.748;19.620;2023-02-15T13:35:04;57.70;;;21.70;;
69005;SDS011;56061;51.748;19.620;2023-02-15T13:40:51;52.20;;;22.40;;
69005;SDS011;56061;51.748;19.620;2023-02-15T13:43:43;48.40;;;19.10;;
69005;SDS011;56061;51.748;19.620;2023-02-15T13:49:17;52.90;;;21.00;;
69005;SDS011;56061;51.748;19.620;2023-02-15T13:52:26;51.10;;;19.20;;
69005;SDS011;56061;51.748;19.620;2023-02-15T13:58:34;42.80;;;15.70;;
69005;SDS011;56061;51.748;19.620;2023-02-15T14:08:01;51.10;;;21.20;;
69005;SDS011;56061;51.748;19.620;2023-02-15T14:10:44;56.30;;;22.20;;
69005;SDS011;56061;51.748;19.620;2023-02-15T14:16:31;52.70;;;22.10;;
69005;SDS011;56061;51.748;19.620;2023-02-15T14:22:35;45.00;;;17.50;;
69005;SDS011;56061;51.748;19.620;2023-02-15T14:25:38;49.70;;;19.90;;
69005;SDS011;56061;51.748;19.620;2023-02-15T14:31:18;48.30;;;18.00;;
69005;SDS011;56061;51.748;19.620;2023-02-15T14:33:58;54.00;;;19.10;;
69005;SDS011;56061;51.748;19.620;2023-02-15T14:36:27;53.20;;;20.40;;
69005;SDS011;56061;51.748;19.620;2023-02-15T14:42:31;54.70;;;22.50;;
69005;SDS011;56061;51.748;19.620;2023-02-15T14:48:20;52.90;;;21.70;;
69005;SDS011;56061;51.748;19.620;2023-02-15T14:50:52;60.40;;;23.30;;
69005;SDS011;56061;51.748;19.620;2023-02-15T15:01:30;48.00;;;18.00;;
69005;SDS011;56061;51.748;19.620;2023-02-15T15:04:02;44.60;;;16.90;;
69005;SDS011;56061;51.748;19.620;2023-02-15T15:06:38;50.50;;;19.80;;
69005;SDS011;56061;51.748;19.620;2023-02-15T15:09:20;58.30;;;23.70;;
69005;SDS011;56061;51.748;19.620;2023-02-15T15:12:01;48.80;;;19.80;;
69005;SDS011;56061;51.748;19.620;2023-02-15T15:15:02;54.10;;;20.90;;
69005;SDS011;56061;51.748;19.620;2023-02-15T15:23:36;55.80;;;21.90;;
69005;SDS011;56061;51.748;19.620;2023-02-15T15:26:29;64.60;;;26.10;;
69005;SDS011;56061;51.748;19.620;2023-02-15T15:29:00;55.80;;;23.70;;
69005;SDS011;56061;51.748;19.620;2023-02-15T15:40:29;53.70;;;21.70;;
69005;SDS011;56061;51.748;19.620;2023-02-15T15:49:15;69.80;;;26.70;;
69005;SDS011;56061;51.748;19.620;2023-02-15T15:51:44;69.40;;;25.80;;
69005;SDS011;56061;51.748;19.620;2023-02-15T15:54:18;62.20;;;24.20;;
69005;SDS011;56061;51.748;19.620;2023-02-15T15:56:56;68.90;;;24.90;;
69005;SDS011;56061;51.748;19.620;2023-02-15T15:59:28;66.80;;;24.60;;
69005;SDS011;56061;51.748;19.620;2023-02-15T16:02:07;71.50;;;26.40;;
69005;SDS011;56061;51.748;19.620;2023-02-15T16:04:42;69.10;;;24.60;;
69005;SDS011;56061;51.748;19.620;2023-02-15T16:07:22;58.30;;;22.80;;
69005;SDS011;56061;51.748;19.620;2023-02-15T16:09:59;59.50;;;23.30;;
69005;SDS011;56061;51.748;19.620;2023-02-15T16:12:30;61.00;;;25.00;;
69005;SDS011;56061;51.748;19.620;2023-02-15T16:15:02;64.30;;;25.40;;
69005;SDS011;56061;51.748;19.620;2023-02-15T16:17:41;64.90;;;25.10;;
69005;SDS011;56061;51.748;19.620;2023-02-15T16:20:18;58.40;;;22.10;;
69005;SDS011;56061;51.748;19.620;2023-02-15T16:22:53;57.20;;;22.90;;
69005;SDS011;56061;51.748;19.620;2023-02-15T16:26:13;63.20;;;24.20;;
69005;SDS011;56061;51.748;19.620;2023-02-15T16:28:58;94.00;;;36.70;;
69005;SDS011;56061;51.748;19.620;2023-02-15T16:31:24;94.70;;;38.80;;
69005;SDS011;56061;51.748;19.620;2023-02-15T16:33:53;65.70;;;26.50;;
69005;SDS011;56061;51.748;19.620;2023-02-15T16:36:24;69.30;;;26.50;;
69005;SDS011;56061;51.748;19.620;2023-02-15T16:41:23;64.00;;;26.20;;
69005;SDS011;56061;51.748;19.620;2023-02-15T16:43:55;60.20;;;24.70;;
69005;SDS011;56061;51.748;19.620;2023-02-15T16:49:02;68.30;;;27.60;;
69005;SDS011;56061;51.748;19.620;2023-02-15T16:51:41;68.70;;;26.80;;
69005;SDS011;56061;51.748;19.620;2023-02-15T16:54:19;99.50;;;43.60;;
69005;SDS011;56061;51.748;19.620;2023-02-15T16:56:48;100.10;;;41.60;;
69005;SDS011;56061;51.748;19.620;2023-02-15T16:59:27;87.70;;;35.00;;
69005;SDS011;56061;51.748;19.620;2023-02-15T17:02:12;87.50;;;34.10;;
69005;SDS011;56061;51.748;19.620;2023-02-15T17:07:40;91.80;;;33.80;;
69005;SDS011;56061;51.748;19.620;2023-02-15T17:12:55;98.20;;;37.80;;
69005;SDS011;56061;51.748;19.620;2023-02-15T17:15:31;109.40;;;38.80;;
69005;SDS011;56061;51.748;19.620;2023-02-15T17:18:08;111.40;;;40.00;;
69005;SDS011;56061;51.748;19.620;2023-02-15T17:20:39;109.80;;;41.50;;
69005;SDS011;56061;51.748;19.620;2023-02-15T17:23:30;113.30;;;38.30;;
69005;SDS011;56061;51.748;19.620;2023-02-15T17:26:00;120.30;;;39.80;;
69005;SDS011;56061;51.748;19.620;2023-02-15T17:28:37;110.00;;;38.40;;
69005;SDS011;56061;51.748;19.620;2023-02-15T17:31:13;118.30;;;41.80;;
69005;SDS011;56061;51.748;19.620;2023-02-15T17:33:42;107.10;;;38.50;;